This is the latest recevied weather packets stored in our database for station/object AK6OS. If no packets are shown the sender has not sent any weather packets the latest 10 day(s).
| Time | Temp. | Humidity | Pressure | Rain* | Wind** | Luminosity | Snow |
|---|---|---|---|---|---|---|---|
| 1777242916 | 18.89° C | 59% | 1016.3 hPa | 0 mm | - | 556 W/m² | - |
| 1777241716 | 17.78° C | 65% | 1016.6 hPa | 0 mm | - | 529 W/m² | - |
| 1777239937 | 16.67° C | 68% | 1016.7 hPa | 0 mm | - | 414 W/m² | - |
| 1777239317 | 16.67° C | 68% | 1016.7 hPa | 0 mm | - | 357 W/m² | - |
| 1777235718 | 16.11° C | 68% | 1016.6 hPa | 0 mm | - | 273 W/m² | - |
| 1777233918 | 16.11° C | 71% | 1016.6 hPa | 0 mm | - | 256 W/m² | - |
| 1777230916 | 15.56° C | 71% | 1016.7 hPa | 0 mm | - | 326 W/m² | - |
| 1777229157 | 15.56° C | 76% | 1016.5 hPa | 0 mm | - | 156 W/m² | - |
| 1777223718 | 15° C | 85% | 1016.2 hPa | 0 mm | - | 484 W/m² | - |
| 1777218916 | 12.22° C | 98% | 1015.6 hPa | 0 mm | - | 148 W/m² | - |
| 1777217716 | 12.22° C | 99% | 1015.4 hPa | 0 mm | - | 117 W/m² | - |
| 1777214717 | 11.67° C | 99% | 1015.2 hPa | 0 mm | - | 81 W/m² | - |
| 1777211116 | 10.56° C | 99% | 1014.6 hPa | 0 mm | - | 11 W/m² | - |
| 1777209956 | 10.56° C | 99% | 1014.4 hPa | 0 mm | - | 3 W/m² | - |
| 1777206916 | 10.56° C | 98% | 1014.2 hPa | 0 mm | - | 0 W/m² | - |
| 1777205717 | 10.56° C | 98% | 1014 hPa | 0 mm | - | 0 W/m² | - |
| 1777204517 | 10.56° C | 98% | 1014 hPa | 0 mm | - | 0 W/m² | - |
| 1777199115 | 10.56° C | 98% | 1014 hPa | 0 mm | - | 0 W/m² | - |
| 1777194917 | 11.11° C | 97% | 1014.1 hPa | 0 mm | - | 0 W/m² | - |
| 1777194317 | 10.56° C | 97% | 1014.2 hPa | 0 mm | - | 0 W/m² | - |
| 1777193117 | 11.11° C | 97% | 1014.3 hPa | 0 mm | - | 0 W/m² | - |
| 1777192517 | 11.11° C | 97% | 1014.4 hPa | 0 mm | - | 0 W/m² | - |
| 1777191318 | 11.11° C | 97% | 1014.3 hPa | 0 mm | - | 0 W/m² | - |
| 1777188918 | 11.11° C | 97% | 1014.4 hPa | 0 mm | - | 0 W/m² | - |
| 1777187716 | 11.67° C | 97% | 1014.4 hPa | 0 mm | - | 0 W/m² | - |
* Rain latest hour (hover to see other rain measurements)
** Current wind speed in m/s (hover to see current wind gust speed)